sensor_id;sensor_type;location;lat;lon;timestamp;temperature;humidity
22416;DHT22;12204;50.600;4.608;2024-02-21T00:02:25;21.70;76.70
22416;DHT22;12204;50.600;4.608;2024-02-21T00:07:28;21.60;77.10
22416;DHT22;12204;50.600;4.608;2024-02-21T00:12:33;21.60;77.30
22416;DHT22;12204;50.600;4.608;2024-02-21T00:17:37;21.60;77.60
22416;DHT22;12204;50.600;4.608;2024-02-21T00:22:41;21.60;77.60
22416;DHT22;12204;50.600;4.608;2024-02-21T00:27:46;21.60;77.70
22416;DHT22;12204;50.600;4.608;2024-02-21T00:32:49;21.60;77.90
22416;DHT22;12204;50.600;4.608;2024-02-21T00:37:53;21.50;77.90
22416;DHT22;12204;50.600;4.608;2024-02-21T00:42:58;21.50;77.90
22416;DHT22;12204;50.600;4.608;2024-02-21T00:48:01;21.50;78.00
22416;DHT22;12204;50.600;4.608;2024-02-21T00:53:05;21.50;78.10
22416;DHT22;12204;50.600;4.608;2024-02-21T00:58:10;21.50;78.00
22416;DHT22;12204;50.600;4.608;2024-02-21T01:03:14;21.50;78.20
22416;DHT22;12204;50.600;4.608;2024-02-21T01:08:17;21.50;78.10
22416;DHT22;12204;50.600;4.608;2024-02-21T01:13:22;21.40;78.70
22416;DHT22;12204;50.600;4.608;2024-02-21T01:18:26;21.50;78.80
22416;DHT22;12204;50.600;4.608;2024-02-21T01:23:29;21.50;78.90
22416;DHT22;12204;50.600;4.608;2024-02-21T01:28:34;21.50;79.10
22416;DHT22;12204;50.600;4.608;2024-02-21T01:33:39;21.50;78.50
22416;DHT22;12204;50.600;4.608;2024-02-21T01:38:42;21.50;78.40
22416;DHT22;12204;50.600;4.608;2024-02-21T01:43:47;21.40;78.70
22416;DHT22;12204;50.600;4.608;2024-02-21T01:48:51;21.40;79.10
22416;DHT22;12204;50.600;4.608;2024-02-21T01:53:55;21.40;79.10
22416;DHT22;12204;50.600;4.608;2024-02-21T01:59:01;21.40;78.90
22416;DHT22;12204;50.600;4.608;2024-02-21T02:04:04;21.40;79.30
22416;DHT22;12204;50.600;4.608;2024-02-21T02:09:08;21.40;79.10
22416;DHT22;12204;50.600;4.608;2024-02-21T02:14:13;21.40;78.70
22416;DHT22;12204;50.600;4.608;2024-02-21T02:19:16;21.40;79.10
22416;DHT22;12204;50.600;4.608;2024-02-21T02:24:22;21.40;78.90
22416;DHT22;12204;50.600;4.608;2024-02-21T02:29:27;21.50;78.90
22416;DHT22;12204;50.600;4.608;2024-02-21T02:34:31;21.40;78.90
22416;DHT22;12204;50.600;4.608;2024-02-21T02:39:36;21.40;78.80
22416;DHT22;12204;50.600;4.608;2024-02-21T02:44:39;21.40;79.10
22416;DHT22;12204;50.600;4.608;2024-02-21T02:49:45;21.30;79.00
22416;DHT22;12204;50.600;4.608;2024-02-21T02:54:54;21.40;79.10
22416;DHT22;12204;50.600;4.608;2024-02-21T02:59:58;21.30;79.80
22416;DHT22;12204;50.600;4.608;2024-02-21T03:05:01;21.40;78.20
22416;DHT22;12204;50.600;4.608;2024-02-21T03:10:17;21.30;79.60
22416;DHT22;12204;50.600;4.608;2024-02-21T03:15:21;21.30;79.10
22416;DHT22;12204;50.600;4.608;2024-02-21T03:20:25;21.30;79.60
22416;DHT22;12204;50.600;4.608;2024-02-21T03:25:29;21.30;78.50
22416;DHT22;12204;50.600;4.608;2024-02-21T03:30:33;21.30;78.90
22416;DHT22;12204;50.600;4.608;2024-02-21T03:35:36;21.30;78.80
22416;DHT22;12204;50.600;4.608;2024-02-21T03:40:41;21.40;78.70
22416;DHT22;12204;50.600;4.608;2024-02-21T03:45:44;21.40;78.50
22416;DHT22;12204;50.600;4.608;2024-02-21T03:50:48;21.40;78.30
22416;DHT22;12204;50.600;4.608;2024-02-21T03:55:53;21.50;78.10
22416;DHT22;12204;50.600;4.608;2024-02-21T04:00:56;21.50;77.50
22416;DHT22;12204;50.600;4.608;2024-02-21T04:06:03;21.60;77.50
22416;DHT22;12204;50.600;4.608;2024-02-21T04:11:08;21.60;77.30
22416;DHT22;12204;50.600;4.608;2024-02-21T04:16:12;21.60;77.20
22416;DHT22;12204;50.600;4.608;2024-02-21T04:21:16;21.60;77.80
22416;DHT22;12204;50.600;4.608;2024-02-21T04:26:21;21.70;77.10
22416;DHT22;12204;50.600;4.608;2024-02-21T04:31:25;21.60;77.00
22416;DHT22;12204;50.600;4.608;2024-02-21T04:36:28;21.70;77.10
22416;DHT22;12204;50.600;4.608;2024-02-21T04:41:33;21.60;76.90
22416;DHT22;12204;50.600;4.608;2024-02-21T04:46:36;21.60;77.40
22416;DHT22;12204;50.600;4.608;2024-02-21T04:51:40;21.60;76.70
22416;DHT22;12204;50.600;4.608;2024-02-21T04:56:45;21.70;76.00
22416;DHT22;12204;50.600;4.608;2024-02-21T05:01:52;21.60;76.40
22416;DHT22;12204;50.600;4.608;2024-02-21T05:06:56;21.60;76.40
22416;DHT22;12204;50.600;4.608;2024-02-21T05:12:00;21.60;76.70
22416;DHT22;12204;50.600;4.608;2024-02-21T05:17:04;21.60;76.80
22416;DHT22;12204;50.600;4.608;2024-02-21T05:22:08;21.60;77.10
22416;DHT22;12204;50.600;4.608;2024-02-21T05:27:12;21.60;77.30
22416;DHT22;12204;50.600;4.608;2024-02-21T05:32:16;21.50;77.40
22416;DHT22;12204;50.600;4.608;2024-02-21T05:37:19;21.50;77.60
22416;DHT22;12204;50.600;4.608;2024-02-21T05:42:24;21.50;77.60
22416;DHT22;12204;50.600;4.608;2024-02-21T05:47:27;21.50;77.70
22416;DHT22;12204;50.600;4.608;2024-02-21T05:52:31;21.50;77.80
22416;DHT22;12204;50.600;4.608;2024-02-21T05:57:36;21.50;77.90
22416;DHT22;12204;50.600;4.608;2024-02-21T06:02:39;21.40;77.80
22416;DHT22;12204;50.600;4.608;2024-02-21T06:07:43;21.40;77.90
22416;DHT22;12204;50.600;4.608;2024-02-21T06:12:47;21.40;78.00
22416;DHT22;12204;50.600;4.608;2024-02-21T06:17:51;21.40;78.10
22416;DHT22;12204;50.600;4.608;2024-02-21T06:22:54;21.40;78.30
22416;DHT22;12204;50.600;4.608;2024-02-21T06:27:59;21.40;78.30
22416;DHT22;12204;50.600;4.608;2024-02-21T06:33:03;21.40;78.30
22416;DHT22;12204;50.600;4.608;2024-02-21T06:38:07;21.40;78.50
22416;DHT22;12204;50.600;4.608;2024-02-21T06:43:12;21.40;78.40
22416;DHT22;12204;50.600;4.608;2024-02-21T06:48:16;21.40;78.50
22416;DHT22;12204;50.600;4.608;2024-02-21T06:53:21;21.40;78.30
22416;DHT22;12204;50.600;4.608;2024-02-21T06:58:26;21.30;78.50
22416;DHT22;12204;50.600;4.608;2024-02-21T07:03:29;21.30;78.30
22416;DHT22;12204;50.600;4.608;2024-02-21T07:08:33;21.30;78.00
22416;DHT22;12204;50.600;4.608;2024-02-21T07:13:38;21.30;78.10
22416;DHT22;12204;50.600;4.608;2024-02-21T07:18:42;21.30;78.10
22416;DHT22;12204;50.600;4.608;2024-02-21T07:23:45;21.30;78.10
22416;DHT22;12204;50.600;4.608;2024-02-21T07:28:50;21.30;78.10
22416;DHT22;12204;50.600;4.608;2024-02-21T07:33:54;21.20;78.20
22416;DHT22;12204;50.600;4.608;2024-02-21T07:38:57;21.20;78.00
22416;DHT22;12204;50.600;4.608;2024-02-21T07:44:02;21.30;77.90
22416;DHT22;12204;50.600;4.608;2024-02-21T07:49:06;21.30;78.00
22416;DHT22;12204;50.600;4.608;2024-02-21T07:54:10;21.30;78.00
22416;DHT22;12204;50.600;4.608;2024-02-21T07:59:19;21.20;78.00
22416;DHT22;12204;50.600;4.608;2024-02-21T08:04:23;21.20;78.00
22416;DHT22;12204;50.600;4.608;2024-02-21T08:09:27;21.20;78.10
22416;DHT22;12204;50.600;4.608;2024-02-21T08:14:31;21.20;77.30
22416;DHT22;12204;50.600;4.608;2024-02-21T08:19:35;21.10;75.50
22416;DHT22;12204;50.600;4.608;2024-02-21T08:24:39;21.10;75.70
22416;DHT22;12204;50.600;4.608;2024-02-21T08:29:44;21.00;75.20
22416;DHT22;12204;50.600;4.608;2024-02-21T08:34:47;20.90;74.60
22416;DHT22;12204;50.600;4.608;2024-02-21T08:39:50;20.90;73.70
22416;DHT22;12204;50.600;4.608;2024-02-21T08:44:55;20.80;73.10
22416;DHT22;12204;50.600;4.608;2024-02-21T08:49:59;20.70;72.00
22416;DHT22;12204;50.600;4.608;2024-02-21T08:55:16;20.70;71.60
22416;DHT22;12204;50.600;4.608;2024-02-21T09:00:21;20.70;71.40
22416;DHT22;12204;50.600;4.608;2024-02-21T09:05:29;20.60;70.60
22416;DHT22;12204;50.600;4.608;2024-02-21T09:10:33;20.60;70.40
22416;DHT22;12204;50.600;4.608;2024-02-21T09:15:38;20.60;70.50
22416;DHT22;12204;50.600;4.608;2024-02-21T09:20:41;20.50;69.80
22416;DHT22;12204;50.600;4.608;2024-02-21T09:25:45;20.50;69.60
22416;DHT22;12204;50.600;4.608;2024-02-21T09:30:50;20.50;68.80
22416;DHT22;12204;50.600;4.608;2024-02-21T09:35:53;20.40;69.10
22416;DHT22;12204;50.600;4.608;2024-02-21T09:40:59;20.40;68.90
22416;DHT22;12204;50.600;4.608;2024-02-21T09:46:08;20.40;68.70
22416;DHT22;12204;50.600;4.608;2024-02-21T09:51:19;20.40;68.90
22416;DHT22;12204;50.600;4.608;2024-02-21T09:56:24;20.40;68.70
22416;DHT22;12204;50.600;4.608;2024-02-21T10:01:28;20.30;68.60
22416;DHT22;12204;50.600;4.608;2024-02-21T10:06:36;20.30;68.90
22416;DHT22;12204;50.600;4.608;2024-02-21T10:11:41;20.30;68.40
22416;DHT22;12204;50.600;4.608;2024-02-21T10:16:47;20.30;68.10
22416;DHT22;12204;50.600;4.608;2024-02-21T10:22:00;20.30;67.70
22416;DHT22;12204;50.600;4.608;2024-02-21T10:27:07;20.20;67.80
22416;DHT22;12204;50.600;4.608;2024-02-21T10:32:15;20.30;68.80
22416;DHT22;12204;50.600;4.608;2024-02-21T10:37:21;20.30;69.70
22416;DHT22;12204;50.600;4.608;2024-02-21T10:42:29;20.40;69.40
22416;DHT22;12204;50.600;4.608;2024-02-21T10:47:36;20.40;69.70
22416;DHT22;12204;50.600;4.608;2024-02-21T10:52:50;20.40;70.10
22416;DHT22;12204;50.600;4.608;2024-02-21T10:57:59;20.40;70.30
22416;DHT22;12204;50.600;4.608;2024-02-21T11:03:04;20.40;70.50
22416;DHT22;12204;50.600;4.608;2024-02-21T11:08:09;20.40;70.70
22416;DHT22;12204;50.600;4.608;2024-02-21T11:13:13;20.40;70.90
22416;DHT22;12204;50.600;4.608;2024-02-21T11:18:24;20.40;71.10
22416;DHT22;12204;50.600;4.608;2024-02-21T11:23:28;20.40;71.30
22416;DHT22;12204;50.600;4.608;2024-02-21T11:28:31;20.40;71.60
22416;DHT22;12204;50.600;4.608;2024-02-21T11:33:39;20.40;71.60
22416;DHT22;12204;50.600;4.608;2024-02-21T11:38:43;20.40;71.70
22416;DHT22;12204;50.600;4.608;2024-02-21T11:43:46;20.40;71.80
22416;DHT22;12204;50.600;4.608;2024-02-21T11:48:53;20.40;72.60
22416;DHT22;12204;50.600;4.608;2024-02-21T11:53:56;20.40;72.10
22416;DHT22;12204;50.600;4.608;2024-02-21T11:59:03;20.40;72.10
22416;DHT22;12204;50.600;4.608;2024-02-21T12:04:10;20.40;72.20
22416;DHT22;12204;50.600;4.608;2024-02-21T12:09:14;20.40;72.40
22416;DHT22;12204;50.600;4.608;2024-02-21T12:14:18;20.40;72.50
22416;DHT22;12204;50.600;4.608;2024-02-21T12:19:23;20.50;72.80
22416;DHT22;12204;50.600;4.608;2024-02-21T12:24:28;20.50;72.70
22416;DHT22;12204;50.600;4.608;2024-02-21T12:29:32;20.50;73.00
22416;DHT22;12204;50.600;4.608;2024-02-21T12:34:37;20.50;72.80
22416;DHT22;12204;50.600;4.608;2024-02-21T12:39:54;20.50;73.00
22416;DHT22;12204;50.600;4.608;2024-02-21T12:44:58;20.40;72.80
22416;DHT22;12204;50.600;4.608;2024-02-21T12:50:04;20.50;73.00
22416;DHT22;12204;50.600;4.608;2024-02-21T12:55:09;20.50;73.10
22416;DHT22;12204;50.600;4.608;2024-02-21T13:00:14;20.50;73.10
22416;DHT22;12204;50.600;4.608;2024-02-21T13:05:21;20.50;73.50
22416;DHT22;12204;50.600;4.608;2024-02-21T13:10:25;20.40;73.40
22416;DHT22;12204;50.600;4.608;2024-02-21T13:15:28;20.50;73.30
22416;DHT22;12204;50.600;4.608;2024-02-21T13:20:33;20.40;73.10
22416;DHT22;12204;50.600;4.608;2024-02-21T13:25:37;20.40;73.20
22416;DHT22;12204;50.600;4.608;2024-02-21T13:30:40;20.50;73.40
22416;DHT22;12204;50.600;4.608;2024-02-21T13:35:45;20.50;73.20
22416;DHT22;12204;50.600;4.608;2024-02-21T13:40:49;20.40;73.10
22416;DHT22;12204;50.600;4.608;2024-02-21T13:45:56;20.40;73.00
22416;DHT22;12204;50.600;4.608;2024-02-21T13:51:02;20.40;73.10
22416;DHT22;12204;50.600;4.608;2024-02-21T13:56:06;20.40;73.40
22416;DHT22;12204;50.600;4.608;2024-02-21T14:01:11;20.40;73.20
22416;DHT22;12204;50.600;4.608;2024-02-21T14:06:16;20.40;73.50
22416;DHT22;12204;50.600;4.608;2024-02-21T14:11:20;20.40;73.60
22416;DHT22;12204;50.600;4.608;2024-02-21T14:16:23;20.40;73.40
22416;DHT22;12204;50.600;4.608;2024-02-21T14:21:28;20.40;73.30
22416;DHT22;12204;50.600;4.608;2024-02-21T14:26:32;20.40;73.30
22416;DHT22;12204;50.600;4.608;2024-02-21T14:31:37;20.40;73.30
22416;DHT22;12204;50.600;4.608;2024-02-21T14:36:42;20.40;73.30
22416;DHT22;12204;50.600;4.608;2024-02-21T14:41:46;20.40;73.30
22416;DHT22;12204;50.600;4.608;2024-02-21T14:46:49;20.40;73.30
22416;DHT22;12204;50.600;4.608;2024-02-21T14:51:54;20.40;73.30
22416;DHT22;12204;50.600;4.608;2024-02-21T14:56:57;20.40;73.30
22416;DHT22;12204;50.600;4.608;2024-02-21T15:02:01;20.40;73.50
22416;DHT22;12204;50.600;4.608;2024-02-21T15:07:06;20.40;73.50
22416;DHT22;12204;50.600;4.608;2024-02-21T15:12:09;20.40;73.50
22416;DHT22;12204;50.600;4.608;2024-02-21T15:17:13;20.40;73.60
22416;DHT22;12204;50.600;4.608;2024-02-21T15:22:18;20.40;73.60
22416;DHT22;12204;50.600;4.608;2024-02-21T15:27:22;20.40;73.70
22416;DHT22;12204;50.600;4.608;2024-02-21T15:32:26;20.40;73.70
22416;DHT22;12204;50.600;4.608;2024-02-21T15:37:31;20.40;73.70
22416;DHT22;12204;50.600;4.608;2024-02-21T15:42:34;20.40;73.70
22416;DHT22;12204;50.600;4.608;2024-02-21T15:47:38;20.40;73.80
22416;DHT22;12204;50.600;4.608;2024-02-21T15:52:43;20.40;73.80
22416;DHT22;12204;50.600;4.608;2024-02-21T15:57:47;20.40;73.90
22416;DHT22;12204;50.600;4.608;2024-02-21T16:02:50;20.40;74.00
22416;DHT22;12204;50.600;4.608;2024-02-21T16:07:57;20.40;74.00
22416;DHT22;12204;50.600;4.608;2024-02-21T16:13:00;20.40;74.30
22416;DHT22;12204;50.600;4.608;2024-02-21T16:18:04;20.50;74.40
22416;DHT22;12204;50.600;4.608;2024-02-21T16:23:09;20.50;74.50
22416;DHT22;12204;50.600;4.608;2024-02-21T16:28:13;20.60;75.00
22416;DHT22;12204;50.600;4.608;2024-02-21T16:33:18;20.60;75.40
22416;DHT22;12204;50.600;4.608;2024-02-21T16:38:23;20.60;75.50
22416;DHT22;12204;50.600;4.608;2024-02-21T16:43:28;20.60;75.60
22416;DHT22;12204;50.600;4.608;2024-02-21T16:48:31;20.60;75.90
22416;DHT22;12204;50.600;4.608;2024-02-21T16:53:37;20.60;76.10
22416;DHT22;12204;50.600;4.608;2024-02-21T16:58:40;20.60;76.00
22416;DHT22;12204;50.600;4.608;2024-02-21T17:03:44;20.60;76.00
22416;DHT22;12204;50.600;4.608;2024-02-21T17:08:49;20.60;76.10
22416;DHT22;12204;50.600;4.608;2024-02-21T17:13:53;20.60;75.90
22416;DHT22;12204;50.600;4.608;2024-02-21T17:24:15;20.50;75.90
22416;DHT22;12204;50.600;4.608;2024-02-21T17:29:19;20.50;76.00
22416;DHT22;12204;50.600;4.608;2024-02-21T17:34:23;20.50;76.20
22416;DHT22;12204;50.600;4.608;2024-02-21T17:39:28;20.50;76.20
22416;DHT22;12204;50.600;4.608;2024-02-21T17:44:31;20.50;76.20
22416;DHT22;12204;50.600;4.608;2024-02-21T17:49:36;20.50;76.50
22416;DHT22;12204;50.600;4.608;2024-02-21T17:54:41;20.50;76.60
22416;DHT22;12204;50.600;4.608;2024-02-21T17:59:46;20.50;76.60
22416;DHT22;12204;50.600;4.608;2024-02-21T18:04:49;20.50;76.50
22416;DHT22;12204;50.600;4.608;2024-02-21T18:09:55;20.50;76.40
22416;DHT22;12204;50.600;4.608;2024-02-21T18:14:58;20.60;76.90
22416;DHT22;12204;50.600;4.608;2024-02-21T18:20:03;20.90;76.60
22416;DHT22;12204;50.600;4.608;2024-02-21T18:25:11;21.20;75.70
22416;DHT22;12204;50.600;4.608;2024-02-21T18:30:15;21.50;75.00
22416;DHT22;12204;50.600;4.608;2024-02-21T18:35:19;21.60;74.30
22416;DHT22;12204;50.600;4.608;2024-02-21T18:40:24;21.80;74.00
22416;DHT22;12204;50.600;4.608;2024-02-21T18:45:28;21.90;73.70
22416;DHT22;12204;50.600;4.608;2024-02-21T18:50:32;22.00;73.40
22416;DHT22;12204;50.600;4.608;2024-02-21T18:55:37;22.00;73.10
22416;DHT22;12204;50.600;4.608;2024-02-21T19:00:40;22.10;73.00
22416;DHT22;12204;50.600;4.608;2024-02-21T19:05:44;22.10;72.90
22416;DHT22;12204;50.600;4.608;2024-02-21T19:10:49;22.10;72.90
22416;DHT22;12204;50.600;4.608;2024-02-21T19:15:53;22.10;72.80
22416;DHT22;12204;50.600;4.608;2024-02-21T19:20:56;22.10;72.90
22416;DHT22;12204;50.600;4.608;2024-02-21T19:26:01;22.10;73.00
22416;DHT22;12204;50.600;4.608;2024-02-21T19:31:05;22.00;72.90
22416;DHT22;12204;50.600;4.608;2024-02-21T19:36:08;22.00;72.90
22416;DHT22;12204;50.600;4.608;2024-02-21T19:41:15;22.00;72.70
22416;DHT22;12204;50.600;4.608;2024-02-21T19:46:18;22.00;72.80
22416;DHT22;12204;50.600;4.608;2024-02-21T19:51:22;21.90;73.00
22416;DHT22;12204;50.600;4.608;2024-02-21T19:56:27;22.00;72.90
22416;DHT22;12204;50.600;4.608;2024-02-21T20:01:31;21.90;73.10
22416;DHT22;12204;50.600;4.608;2024-02-21T20:06:35;21.80;73.00
22416;DHT22;12204;50.600;4.608;2024-02-21T20:11:39;21.80;73.00
22416;DHT22;12204;50.600;4.608;2024-02-21T20:16:43;21.80;73.10
22416;DHT22;12204;50.600;4.608;2024-02-21T20:21:48;21.70;73.30
22416;DHT22;12204;50.600;4.608;2024-02-21T20:26:53;21.70;73.30
22416;DHT22;12204;50.600;4.608;2024-02-21T20:31:56;21.60;73.40
22416;DHT22;12204;50.600;4.608;2024-02-21T20:37:01;21.60;73.30
22416;DHT22;12204;50.600;4.608;2024-02-21T20:42:09;21.60;73.80
22416;DHT22;12204;50.600;4.608;2024-02-21T20:47:16;21.60;75.20
22416;DHT22;12204;50.600;4.608;2024-02-21T20:52:21;21.70;75.00
22416;DHT22;12204;50.600;4.608;2024-02-21T20:57:26;21.70;74.70
22416;DHT22;12204;50.600;4.608;2024-02-21T21:02:30;21.80;74.70
22416;DHT22;12204;50.600;4.608;2024-02-21T21:07:33;21.80;74.80
22416;DHT22;12204;50.600;4.608;2024-02-21T21:12:40;21.80;74.80
22416;DHT22;12204;50.600;4.608;2024-02-21T21:17:43;21.80;74.70
22416;DHT22;12204;50.600;4.608;2024-02-21T21:22:47;21.80;74.80
22416;DHT22;12204;50.600;4.608;2024-02-21T21:27:52;21.70;75.60
22416;DHT22;12204;50.600;4.608;2024-02-21T21:32:55;21.70;74.90
22416;DHT22;12204;50.600;4.608;2024-02-21T21:38:02;21.70;75.10
22416;DHT22;12204;50.600;4.608;2024-02-21T21:43:07;21.80;75.10
22416;DHT22;12204;50.600;4.608;2024-02-21T21:48:11;21.80;75.20
22416;DHT22;12204;50.600;4.608;2024-02-21T21:53:15;21.80;75.20
22416;DHT22;12204;50.600;4.608;2024-02-21T21:58:20;21.80;75.40
22416;DHT22;12204;50.600;4.608;2024-02-21T22:03:23;21.80;75.40
22416;DHT22;12204;50.600;4.608;2024-02-21T22:08:27;21.80;75.40
22416;DHT22;12204;50.600;4.608;2024-02-21T22:13:32;21.80;75.40
22416;DHT22;12204;50.600;4.608;2024-02-21T22:18:35;21.80;75.20
22416;DHT22;12204;50.600;4.608;2024-02-21T22:23:39;21.80;75.40
22416;DHT22;12204;50.600;4.608;2024-02-21T22:28:47;21.90;75.20
22416;DHT22;12204;50.600;4.608;2024-02-21T22:33:52;21.90;75.10
22416;DHT22;12204;50.600;4.608;2024-02-21T22:38:59;21.90;75.10
22416;DHT22;12204;50.600;4.608;2024-02-21T22:44:04;21.90;75.00
22416;DHT22;12204;50.600;4.608;2024-02-21T22:49:08;21.90;74.90
22416;DHT22;12204;50.600;4.608;2024-02-21T22:54:11;22.00;74.90
22416;DHT22;12204;50.600;4.608;2024-02-21T22:59:18;22.00;75.00
22416;DHT22;12204;50.600;4.608;2024-02-21T23:04:22;22.00;74.90
22416;DHT22;12204;50.600;4.608;2024-02-21T23:09:25;22.00;74.90
22416;DHT22;12204;50.600;4.608;2024-02-21T23:14:30;22.00;75.00
22416;DHT22;12204;50.600;4.608;2024-02-21T23:19:33;22.00;75.20
22416;DHT22;12204;50.600;4.608;2024-02-21T23:24:37;22.00;75.10
22416;DHT22;12204;50.600;4.608;2024-02-21T23:29:41;22.10;75.10
22416;DHT22;12204;50.600;4.608;2024-02-21T23:34:46;22.10;75.10
22416;DHT22;12204;50.600;4.608;2024-02-21T23:39:52;22.10;75.00
22416;DHT22;12204;50.600;4.608;2024-02-21T23:44:56;22.00;75.00
22416;DHT22;12204;50.600;4.608;2024-02-21T23:50:00;22.00;74.90
22416;DHT22;12204;50.600;4.608;2024-02-21T23:55:04;22.00;74.90
